Time;durP1;ratioP1;P1;durP2;ratioP2;P2;SDS_P1;SDS_P2;PMS_P1;PMS_P2;Temp;Humidity;BMP_temperature;BMP_pressure;BME280_temperature;BME280_humidity;BME280_pressure;Samples;Min_cycle;Max_cycle;Signal;HPM_P1;HPM_P2
2021/07/14 00:00:10;;;;;;;12.88;8.95;;;20.50;89.70;;;;;;4971746;28;20039;-79
2021/07/14 00:02:37;;;;;;;15.65;10.23;;;20.50;89.70;;;;;;5003250;28;20117;-78
2021/07/14 00:05:08;;;;;;;13.25;9.30;;;20.50;89.60;;;;;;4974076;28;20050;-78
2021/07/14 00:07:35;;;;;;;13.27;8.52;;;20.50;89.60;;;;;;4985421;28;20094;-78
2021/07/14 00:10:15;;;;;;;14.68;9.13;;;20.50;89.70;;;;;;4964990;28;20117;-79
2021/07/14 00:12:49;;;;;;;15.95;8.50;;;20.50;89.50;;;;;;4984439;28;20372;-79
2021/07/14 00:23:14;;;;;;;13.63;8.60;;;20.50;89.50;;;;;;4990326;28;20074;-78
2021/07/14 00:25:41;;;;;;;13.68;9.77;;;20.50;89.40;;;;;;4974691;28;20137;-79
2021/07/14 00:28:08;;;;;;;11.65;8.43;;;20.50;89.30;;;;;;4947227;28;20062;-78
2021/07/14 00:30:37;;;;;;;16.35;11.38;;;20.50;89.30;;;;;;5006818;28;20039;-78
2021/07/14 00:33:04;;;;;;;16.00;9.57;;;20.50;89.40;;;;;;4972556;28;20109;-79
2021/07/14 00:35:31;;;;;;;17.88;9.95;;;20.50;89.40;;;;;;4975720;28;20038;-78
2021/07/14 00:37:59;;;;;;;17.15;10.82;;;20.50;89.40;;;;;;4957132;28;20508;-79
2021/07/14 00:40:26;;;;;;;15.90;9.75;;;20.40;89.30;;;;;;4970974;28;20070;-78
2021/07/14 00:42:53;;;;;;;13.18;8.70;;;20.50;89.30;;;;;;5004614;28;20047;-79
2021/07/14 00:45:20;;;;;;;14.80;10.27;;;20.50;89.30;;;;;;4985515;28;20125;-78
2021/07/14 00:47:50;;;;;;;13.48;9.52;;;20.40;89.30;;;;;;4987331;28;20047;-78
2021/07/14 00:50:17;;;;;;;13.40;9.57;;;20.50;89.40;;;;;;4987117;28;20046;-78
2021/07/14 00:52:44;;;;;;;15.73;10.30;;;20.40;89.30;;;;;;4952043;28;20047;-79
2021/07/14 00:55:11;;;;;;;12.90;8.95;;;20.50;89.40;;;;;;4971821;28;20144;-78
2021/07/14 00:57:38;;;;;;;12.95;8.55;;;20.40;89.30;;;;;;4967900;28;20681;-78
2021/07/14 01:00:08;;;;;;;12.90;9.18;;;20.40;89.30;;;;;;4973245;28;20053;-78
2021/07/14 01:02:38;;;;;;;14.70;10.02;;;20.40;89.30;;;;;;4998660;28;20411;-78
2021/07/14 01:05:13;;;;;;;14.35;9.25;;;20.40;89.30;;;;;;4975805;28;20043;-79
2021/07/14 01:08:15;;;;;;;15.35;10.05;;;20.40;89.30;;;;;;4969531;28;20105;-79
2021/07/14 01:10:54;;;;;;;14.20;8.98;;;20.40;89.20;;;;;;4983372;28;20050;-79
2021/07/14 01:13:35;;;;;;;11.65;8.63;;;20.40;89.20;;;;;;4976875;28;20046;-79
2021/07/14 01:16:13;;;;;;;13.70;9.60;;;20.40;89.30;;;;;;4988326;28;20054;-78
2021/07/14 01:18:52;;;;;;;13.95;8.80;;;20.40;89.30;;;;;;4972827;28;20051;-78
2021/07/14 01:21:24;;;;;;;13.00;8.52;;;20.40;89.30;;;;;;4970316;28;20050;-79
2021/07/14 01:24:16;;;;;;;10.68;7.78;;;20.40;89.30;;;;;;4973961;28;20038;-79
2021/07/14 01:27:05;;;;;;;11.43;7.63;;;20.50;89.20;;;;;;4987144;28;20063;-78
2021/07/14 01:29:47;;;;;;;12.20;7.90;;;20.40;89.10;;;;;;4957533;28;20102;-78
2021/07/14 01:32:16;;;;;;;11.35;8.00;;;20.40;89.20;;;;;;4983660;28;20042;-79
2021/07/14 01:34:46;;;;;;;16.05;9.90;;;20.40;89.30;;;;;;4996116;28;20447;-78
2021/07/14 01:37:18;;;;;;;12.50;8.25;;;20.40;89.40;;;;;;4988106;28;20047;-78
2021/07/14 01:39:46;;;;;;;14.82;9.25;;;20.30;89.50;;;;;;4986598;28;20141;-79
2021/07/14 01:42:14;;;;;;;12.23;7.70;;;20.30;89.60;;;;;;4965428;28;20571;-78
2021/07/14 01:44:44;;;;;;;11.93;9.43;;;20.30;89.60;;;;;;4969683;28;20078;-78
2021/07/14 01:47:12;;;;;;;13.00;8.80;;;20.30;89.70;;;;;;4968474;28;20503;-78
2021/07/14 01:49:41;;;;;;;11.88;8.07;;;20.20;90.10;;;;;;4986644;28;20046;-78
2021/07/14 01:52:13;;;;;;;11.20;7.28;;;20.20;89.80;;;;;;4972085;28;20085;-79
2021/07/14 01:54:42;;;;;;;12.27;8.35;;;20.20;90.20;;;;;;4979627;28;20068;-79
2021/07/14 01:57:10;;;;;;;12.48;8.05;;;20.20;89.90;;;;;;4988078;28;20081;-79
2021/07/14 01:59:39;;;;;;;12.30;7.35;;;20.20;90.20;;;;;;4973701;28;20055;-79
2021/07/14 02:02:09;;;;;;;11.93;7.45;;;20.20;90.00;;;;;;4987964;28;20046;-79
2021/07/14 02:04:39;;;;;;;13.15;7.30;;;20.20;90.00;;;;;;5004815;28;20070;-79
2021/07/14 02:07:15;;;;;;;14.75;7.68;;;20.20;90.00;;;;;;5003608;28;20485;-79
2021/07/14 02:09:44;;;;;;;10.38;6.88;;;20.20;90.00;;;;;;4988269;28;20054;-79
2021/07/14 02:12:24;;;;;;;13.15;7.47;;;20.20;90.00;;;;;;4952846;28;20071;-78
2021/07/14 02:15:04;;;;;;;10.60;7.10;;;20.20;90.00;;;;;;4992397;28;20046;-79
2021/07/14 02:17:36;;;;;;;13.07;7.70;;;20.20;90.00;;;;;;5010517;28;20077;-79
2021/07/14 02:20:05;;;;;;;12.70;8.25;;;20.20;90.00;;;;;;4987057;28;20047;-79
2021/07/14 02:22:33;;;;;;;9.10;5.75;;;20.20;90.00;;;;;;4989557;28;20057;-78
2021/07/14 02:25:00;;;;;;;14.43;7.50;;;20.20;90.10;;;;;;4995247;28;20491;-79
2021/07/14 02:27:27;;;;;;;14.02;8.07;;;20.20;90.00;;;;;;4978045;28;20070;-78
2021/07/14 02:29:54;;;;;;;11.02;7.55;;;20.20;90.00;;;;;;4992945;28;20089;-78
2021/07/14 02:32:22;;;;;;;16.23;10.07;;;20.20;90.10;;;;;;4973247;28;20101;-79
2021/07/14 02:34:52;;;;;;;16.55;10.75;;;20.20;90.10;;;;;;4969076;28;20123;-79
2021/07/14 02:37:51;;;;;;;11.80;8.07;;;20.20;90.20;;;;;;4956392;28;20514;-78
2021/07/14 02:40:32;;;;;;;15.10;9.75;;;20.10;90.10;;;;;;4982462;28;20055;-79
2021/07/14 02:43:03;;;;;;;11.70;7.80;;;20.10;90.20;;;;;;4973850;28;20447;-79
2021/07/14 02:45:32;;;;;;;13.23;8.63;;;20.10;90.20;;;;;;4993638;28;20386;-78
2021/07/14 02:48:01;;;;;;;13.30;8.95;;;20.10;90.20;;;;;;4978096;28;20042;-79
2021/07/14 02:50:33;;;;;;;12.57;8.48;;;20.10;90.20;;;;;;4975382;28;20471;-78
2021/07/14 02:53:09;;;;;;;15.00;10.40;;;20.10;90.30;;;;;;4975568;28;20503;-78
2021/07/14 02:55:38;;;;;;;17.95;11.60;;;20.10;90.30;;;;;;4982681;28;20507;-78
2021/07/14 02:58:07;;;;;;;16.42;10.45;;;20.10;90.40;;;;;;4977867;28;20038;-78
2021/07/14 03:00:38;;;;;;;18.52;11.55;;;20.10;90.40;;;;;;4959705;28;20043;-78
2021/07/14 03:03:07;;;;;;;13.10;8.27;;;20.10;90.40;;;;;;4947661;28;20038;-78
2021/07/14 03:05:36;;;;;;;13.77;8.60;;;20.00;90.40;;;;;;5004424;28;20061;-78
2021/07/14 03:08:07;;;;;;;12.07;7.85;;;20.10;90.40;;;;;;4976858;28;20059;-78
2021/07/14 03:10:34;;;;;;;17.38;10.45;;;20.10;90.40;;;;;;4988001;28;20569;-79
2021/07/14 03:13:02;;;;;;;15.57;9.80;;;20.10;90.40;;;;;;4993151;28;20051;-78
2021/07/14 03:15:32;;;;;;;17.20;10.18;;;20.10;90.40;;;;;;4990263;28;20055;-78
2021/07/14 03:18:00;;;;;;;16.95;10.70;;;20.10;90.40;;;;;;4993583;28;20043;-78
2021/07/14 03:20:27;;;;;;;18.58;10.35;;;20.00;90.50;;;;;;4977751;28;20047;-78
2021/07/14 03:22:56;;;;;;;16.15;8.68;;;20.00;90.50;;;;;;4975079;28;20097;-78
2021/07/14 03:25:25;;;;;;;18.42;10.93;;;20.00;90.60;;;;;;4974999;28;20050;-79
2021/07/14 03:27:53;;;;;;;15.20;8.32;;;20.00;90.60;;;;;;4987586;28;20061;-78
2021/07/14 03:30:22;;;;;;;13.68;7.80;;;20.00;90.60;;;;;;4979521;28;20042;-78
2021/07/14 03:32:50;;;;;;;12.52;8.25;;;20.00;90.60;;;;;;4976160;28;20070;-79
2021/07/14 03:35:17;;;;;;;16.08;9.43;;;20.00;90.60;;;;;;4971358;28;20070;-78
2021/07/14 03:37:48;;;;;;;14.07;8.18;;;20.00;90.90;;;;;;4972451;28;20106;-78
2021/07/14 03:40:16;;;;;;;18.05;10.15;;;19.90;90.70;;;;;;4986296;28;20047;-78
2021/07/14 03:42:43;;;;;;;17.13;9.98;;;20.00;90.70;;;;;;4999067;28;20444;-78
2021/07/14 03:45:11;;;;;;;14.93;9.20;;;20.00;90.70;;;;;;4973994;28;20031;-79
2021/07/14 03:47:41;;;;;;;15.35;9.43;;;20.00;90.70;;;;;;4975976;28;20038;-79
2021/07/14 03:50:09;;;;;;;18.35;10.63;;;20.00;90.70;;;;;;5004955;28;20055;-78
2021/07/14 03:52:38;;;;;;;13.52;9.25;;;20.00;90.70;;;;;;4973848;28;20046;-78
2021/07/14 03:55:10;;;;;;;18.08;10.18;;;20.00;90.80;;;;;;4989202;28;20478;-78
2021/07/14 03:57:38;;;;;;;16.05;9.05;;;20.00;90.70;;;;;;4989273;28;20046;-78
2021/07/14 04:00:05;;;;;;;13.70;8.35;;;20.00;90.70;;;;;;4986983;28;20082;-78
2021/07/14 04:02:35;;;;;;;16.48;8.88;;;20.00;90.70;;;;;;5005827;28;20038;-78
2021/07/14 04:05:06;;;;;;;20.52;12.80;;;20.00;91.00;;;;;;4989739;28;20458;-79
2021/07/14 04:07:35;;;;;;;22.73;13.85;;;20.00;90.80;;;;;;4989233;28;20047;-79
2021/07/14 04:10:03;;;;;;;21.38;12.20;;;19.90;90.80;;;;;;4989554;28;20051;-78
2021/07/14 04:12:32;;;;;;;18.13;11.60;;;19.90;90.80;;;;;;4955738;28;20047;-78
2021/07/14 04:15:00;;;;;;;19.17;11.40;;;19.90;90.90;;;;;;4973866;28;20047;-78
2021/07/14 04:17:27;;;;;;;15.80;10.43;;;19.90;90.90;;;;;;4935258;28;20086;-78
2021/07/14 04:19:54;;;;;;;14.95;8.98;;;19.90;90.90;;;;;;4926824;29;20102;-79
2021/07/14 04:22:21;;;;;;;17.10;9.88;;;19.90;90.80;;;;;;4985522;28;20047;-78
2021/07/14 04:24:48;;;;;;;14.68;9.23;;;19.90;90.80;;;;;;4968463;28;20102;-78
2021/07/14 04:27:15;;;;;;;14.73;9.23;;;19.90;90.80;;;;;;5005317;28;20496;-78
2021/07/14 04:29:42;;;;;;;15.52;9.55;;;19.90;90.80;;;;;;4974976;28;20465;-79
2021/07/14 04:32:09;;;;;;;14.13;9.05;;;19.90;90.80;;;;;;5006946;28;20097;-78
2021/07/14 04:34:37;;;;;;;14.38;7.90;;;19.90;90.80;;;;;;4990765;28;20054;-78
2021/07/14 04:37:04;;;;;;;17.05;9.30;;;19.80;90.80;;;;;;4971049;28;20047;-79
2021/07/14 04:39:31;;;;;;;15.70;9.20;;;19.90;90.80;;;;;;4982055;28;20118;-79
2021/07/14 04:41:58;;;;;;;16.98;9.93;;;19.80;90.80;;;;;;4987185;28;20090;-79
2021/07/14 04:44:34;;;;;;;14.73;9.90;;;19.80;90.80;;;;;;4970221;28;20039;-78
2021/07/14 04:47:01;;;;;;;13.25;8.07;;;19.80;90.80;;;;;;4988697;28;20038;-78
2021/07/14 04:49:29;;;;;;;12.43;8.77;;;19.80;90.80;;;;;;4956757;28;20046;-79
2021/07/14 04:51:56;;;;;;;11.45;8.20;;;19.80;90.80;;;;;;4991621;28;20038;-79
2021/07/14 04:54:23;;;;;;;11.98;7.72;;;19.80;90.80;;;;;;4998005;28;20043;-79
2021/07/14 04:56:53;;;;;;;13.63;8.85;;;19.80;90.80;;;;;;4988627;28;20071;-78
2021/07/14 04:59:20;;;;;;;14.10;8.18;;;19.80;90.80;;;;;;4969810;28;20035;-79
2021/07/14 05:01:47;;;;;;;14.57;9.25;;;19.80;90.80;;;;;;4967586;28;20496;-79
2021/07/14 05:04:15;;;;;;;14.40;7.82;;;19.80;90.80;;;;;;4973371;28;20380;-79
2021/07/14 05:06:42;;;;;;;14.32;9.15;;;19.80;90.80;;;;;;4992586;28;20046;-79
2021/07/14 05:09:09;;;;;;;11.75;7.88;;;19.80;90.80;;;;;;4972617;28;20380;-79
2021/07/14 05:11:36;;;;;;;13.70;7.75;;;19.80;90.80;;;;;;4972956;28;20069;-79
2021/07/14 05:14:03;;;;;;;11.95;7.72;;;19.80;90.80;;;;;;4971505;28;20410;-79
2021/07/14 05:16:30;;;;;;;13.18;9.70;;;19.80;90.70;;;;;;5003854;28;20081;-79
2021/07/14 05:19:01;;;;;;;12.20;7.78;;;19.80;90.70;;;;;;4972204;28;20039;-79
2021/07/14 05:21:28;;;;;;;15.23;9.52;;;19.80;90.70;;;;;;4981168;28;20510;-78
2021/07/14 05:23:55;;;;;;;11.43;6.97;;;19.80;90.70;;;;;;4989307;28;20533;-78
2021/07/14 05:26:22;;;;;;;14.23;8.00;;;19.80;90.60;;;;;;4999316;28;20043;-78
2021/07/14 05:28:49;;;;;;;12.68;6.65;;;19.80;90.60;;;;;;4984691;28;20503;-78
2021/07/14 05:31:16;;;;;;;13.00;7.43;;;19.80;90.60;;;;;;5010323;28;20022;-78
2021/07/14 05:33:43;;;;;;;10.70;6.78;;;19.80;90.60;;;;;;5004030;28;20101;-79
2021/07/14 05:36:13;;;;;;;10.90;7.13;;;19.90;90.60;;;;;;4972947;28;20105;-79
2021/07/14 05:38:41;;;;;;;12.90;7.28;;;19.90;90.60;;;;;;4984331;28;20514;-79
2021/07/14 05:41:09;;;;;;;13.55;7.30;;;19.90;90.50;;;;;;4981445;28;20063;-78
2021/07/14 05:43:40;;;;;;;10.43;6.82;;;19.90;90.50;;;;;;4981913;28;20051;-79
2021/07/14 05:46:09;;;;;;;11.15;6.57;;;19.90;90.50;;;;;;4988069;28;20074;-78
2021/07/14 05:48:36;;;;;;;11.70;7.57;;;20.00;90.50;;;;;;4983995;28;20078;-78
2021/07/14 05:51:03;;;;;;;10.77;6.78;;;20.00;90.50;;;;;;4980023;28;20066;-79
2021/07/14 05:53:30;;;;;;;9.85;6.65;;;20.00;90.50;;;;;;4971283;28;20047;-79
2021/07/14 05:55:57;;;;;;;10.55;6.60;;;20.00;90.40;;;;;;4987835;28;20043;-79
2021/07/14 05:58:24;;;;;;;12.73;8.05;;;20.00;90.40;;;;;;4980702;28;20039;-78
2021/07/14 06:00:51;;;;;;;13.38;8.52;;;20.00;90.30;;;;;;4971140;28;20035;-79
2021/07/14 06:03:18;;;;;;;13.15;7.75;;;20.00;90.30;;;;;;4951153;28;20102;-78
2021/07/14 06:05:45;;;;;;;12.32;8.25;;;20.00;90.30;;;;;;4985602;28;20038;-79
2021/07/14 06:08:12;;;;;;;10.35;7.57;;;20.00;90.30;;;;;;4987816;28;20733;-79
2021/07/14 06:10:39;;;;;;;12.18;7.45;;;20.10;90.30;;;;;;4966547;28;20042;-78
2021/07/14 06:13:09;;;;;;;9.35;6.88;;;20.10;90.30;;;;;;4969081;28;20041;-79
2021/07/14 06:15:36;;;;;;;10.43;7.45;;;20.10;90.30;;;;;;4931869;28;20077;-79
2021/07/14 06:18:03;;;;;;;11.50;7.90;;;20.10;90.30;;;;;;4959358;28;20121;-78
2021/07/14 06:20:31;;;;;;;13.10;8.50;;;20.20;90.20;;;;;;4961761;28;20094;-78
2021/07/14 06:22:58;;;;;;;11.43;7.65;;;20.20;90.20;;;;;;4974468;28;20038;-79
2021/07/14 06:25:25;;;;;;;11.90;7.43;;;20.20;90.10;;;;;;4987424;28;20073;-79
2021/07/14 06:27:52;;;;;;;12.57;8.35;;;20.30;90.10;;;;;;5003608;28;20082;-79
2021/07/14 06:30:19;;;;;;;10.88;6.93;;;20.40;90.10;;;;;;4988498;28;20097;-78
2021/07/14 06:32:51;;;;;;;10.75;7.47;;;20.40;90.10;;;;;;5006331;28;20082;-78
2021/07/14 06:35:19;;;;;;;10.18;7.22;;;20.50;90.00;;;;;;5004137;28;20047;-79
2021/07/14 06:37:47;;;;;;;12.43;8.05;;;20.50;90.00;;;;;;4973335;28;20105;-78
2021/07/14 06:40:15;;;;;;;14.13;8.88;;;20.50;89.90;;;;;;4978496;28;20438;-79
2021/07/14 06:42:43;;;;;;;13.32;9.05;;;20.50;89.90;;;;;;4988159;28;20045;-78
2021/07/14 06:45:12;;;;;;;13.45;9.27;;;20.50;89.80;;;;;;4970695;28;20114;-78
2021/07/14 06:47:39;;;;;;;13.15;9.48;;;20.60;89.80;;;;;;4955365;28;20089;-78
2021/07/14 06:50:08;;;;;;;12.85;8.70;;;20.60;89.60;;;;;;4986880;28;20043;-78
2021/07/14 06:52:36;;;;;;;12.95;8.57;;;20.60;89.60;;;;;;4970121;28;20097;-78
2021/07/14 06:55:05;;;;;;;13.95;8.40;;;20.70;89.50;;;;;;4970654;28;20680;-78
2021/07/14 06:57:32;;;;;;;15.50;9.90;;;20.70;89.30;;;;;;4972576;28;20046;-78
2021/07/14 06:59:59;;;;;;;12.88;8.25;;;20.80;89.10;;;;;;4965836;28;20066;-76
2021/07/14 07:02:26;;;;;;;12.38;8.85;;;20.80;89.10;;;;;;4969904;28;20121;-76
2021/07/14 07:04:54;;;;;;;13.05;9.35;;;20.80;88.90;;;;;;4974220;28;20035;-78
2021/07/14 07:07:20;;;;;;;11.73;8.00;;;20.90;88.60;;;;;;4974222;28;20591;-76
2021/07/14 07:09:47;;;;;;;10.48;7.70;;;20.90;88.50;;;;;;4977775;28;20039;-79
2021/07/14 07:12:14;;;;;;;10.98;7.57;;;20.90;88.50;;;;;;4979185;28;20046;-78
2021/07/14 07:14:42;;;;;;;12.50;8.02;;;20.90;88.30;;;;;;4992602;28;20089;-77
2021/07/14 07:17:09;;;;;;;9.88;6.75;;;20.90;88.20;;;;;;5006475;28;20105;-79
2021/07/14 07:19:36;;;;;;;25.60;9.00;;;20.90;88.30;;;;;;4974305;28;20042;-77
2021/07/14 07:22:04;;;;;;;18.45;8.82;;;20.90;88.20;;;;;;4957075;28;20043;-78
2021/07/14 07:24:32;;;;;;;12.77;8.15;;;20.80;88.10;;;;;;4974659;28;20094;-78
2021/07/14 07:27:04;;;;;;;14.18;10.02;;;20.90;88.30;;;;;;4975603;28;20051;-78
2021/07/14 07:29:31;;;;;;;11.65;7.80;;;20.80;88.30;;;;;;4989769;28;20066;-78
2021/07/14 07:31:58;;;;;;;15.02;9.38;;;20.80;88.40;;;;;;4990639;28;20109;-77
2021/07/14 07:34:25;;;;;;;13.80;9.63;;;20.80;88.30;;;;;;4958624;28;20125;-78
2021/07/14 07:36:53;;;;;;;16.23;9.95;;;20.80;88.40;;;;;;4970946;28;20587;-78
2021/07/14 07:39:21;;;;;;;14.55;10.70;;;20.70;88.30;;;;;;5006253;28;20484;-78
2021/07/14 07:41:49;;;;;;;18.65;11.60;;;20.70;88.30;;;;;;4989694;28;20129;-78
2021/07/14 07:44:16;;;;;;;14.23;9.23;;;20.70;88.30;;;;;;4974678;28;20134;-77
2021/07/14 07:46:43;;;;;;;15.00;10.38;;;20.60;88.40;;;;;;4989988;28;20046;-78
2021/07/14 07:49:11;;;;;;;15.60;10.35;;;20.70;88.20;;;;;;4975749;28;20503;-78
2021/07/14 07:51:41;;;;;;;18.60;12.05;;;20.70;88.70;;;;;;4974046;28;20046;-78
2021/07/14 07:54:08;;;;;;;15.02;9.98;;;20.70;88.00;;;;;;4973402;28;20050;-77
2021/07/14 07:56:35;;;;;;;15.35;9.52;;;20.70;88.10;;;;;;4973642;28;20860;-77
2021/07/14 07:59:04;;;;;;;13.57;9.00;;;20.60;88.20;;;;;;4972887;28;20047;-75
2021/07/14 08:01:36;;;;;;;15.02;10.27;;;20.70;88.30;;;;;;4967855;28;20035;-75
2021/07/14 08:04:04;;;;;;;14.35;8.68;;;20.60;88.30;;;;;;4998552;28;20467;-78
2021/07/14 08:06:32;;;;;;;14.57;9.35;;;20.70;88.40;;;;;;5000046;28;20515;-79
2021/07/14 08:08:59;;;;;;;20.13;12.57;;;20.70;88.30;;;;;;4968244;28;20050;-78
2021/07/14 08:11:26;;;;;;;18.05;11.45;;;20.70;88.20;;;;;;4982373;28;20066;-79
2021/07/14 08:13:55;;;;;;;15.43;10.43;;;20.70;88.20;;;;;;4988885;28;20057;-79
2021/07/14 08:16:25;;;;;;;17.58;11.20;;;20.70;88.20;;;;;;4973503;28;20070;-76
2021/07/14 08:18:52;;;;;;;17.13;10.98;;;20.70;88.00;;;;;;5001303;28;20085;-76
2021/07/14 08:21:20;;;;;;;18.13;11.32;;;20.70;88.60;;;;;;4969322;28;20039;-75
2021/07/14 08:23:47;;;;;;;16.38;11.38;;;20.70;88.60;;;;;;4975644;28;20070;-76
2021/07/14 08:26:14;;;;;;;18.70;10.82;;;20.70;88.00;;;;;;4975399;28;20503;-76
2021/07/14 08:28:42;;;;;;;15.82;10.40;;;20.80;88.00;;;;;;4973649;28;20039;-77
2021/07/14 08:31:11;;;;;;;14.68;10.00;;;20.80;88.50;;;;;;4968552;28;20392;-78
2021/07/14 08:33:38;;;;;;;16.17;10.45;;;20.80;87.90;;;;;;4972699;28;20534;-76
2021/07/14 08:36:05;;;;;;;12.80;7.78;;;20.90;87.80;;;;;;4971966;28;20138;-77
2021/07/14 08:38:32;;;;;;;14.88;9.50;;;20.90;87.70;;;;;;4956937;28;20387;-77
2021/07/14 08:41:01;;;;;;;14.55;9.02;;;20.90;87.50;;;;;;4990200;28;20130;-77
2021/07/14 08:43:31;;;;;;;13.82;9.27;;;21.00;87.60;;;;;;4983518;28;20039;-77
2021/07/14 08:45:59;;;;;;;17.40;11.02;;;21.00;87.40;;;;;;4970862;28;20737;-77
2021/07/14 08:48:26;;;;;;;16.75;10.90;;;21.00;87.40;;;;;;4973650;28;20043;-76
2021/07/14 08:50:58;;;;;;;15.38;10.25;;;21.00;87.40;;;;;;5001995;28;20392;-77
2021/07/14 08:53:27;;;;;;;14.32;9.95;;;20.90;87.50;;;;;;4997734;28;20198;-76
2021/07/14 08:55:55;;;;;;;17.40;12.40;;;20.80;87.50;;;;;;4972449;28;20129;-75
2021/07/14 08:58:23;;;;;;;16.67;10.85;;;20.80;87.60;;;;;;4973336;28;20042;-75
2021/07/14 09:00:53;;;;;;;13.07;9.35;;;20.80;87.70;;;;;;4987747;28;20070;-76
2021/07/14 09:03:20;;;;;;;13.85;8.90;;;20.80;87.70;;;;;;4988102;28;20038;-76
2021/07/14 09:05:48;;;;;;;18.00;11.82;;;20.90;87.70;;;;;;4971093;28;20121;-77
2021/07/14 09:08:15;;;;;;;15.43;10.05;;;20.90;87.40;;;;;;4970529;28;20054;-77
2021/07/14 09:10:47;;;;;;;14.95;10.82;;;21.00;87.40;;;;;;4971000;28;20140;-77
2021/07/14 09:13:15;;;;;;;13.40;10.10;;;20.90;87.40;;;;;;4968825;28;20093;-78
2021/07/14 09:15:49;;;;;;;15.15;10.40;;;20.90;87.40;;;;;;4970446;28;20411;-78
2021/07/14 09:18:20;;;;;;;17.45;9.98;;;21.00;87.40;;;;;;4968519;28;20138;-78
2021/07/14 09:20:48;;;;;;;17.67;12.68;;;21.10;87.30;;;;;;4972966;28;20165;-77
2021/07/14 09:23:19;;;;;;;17.13;12.05;;;21.10;87.00;;;;;;4972199;28;20047;-77
2021/07/14 09:25:55;;;;;;;15.10;11.18;;;21.10;87.00;;;;;;4988291;28;20042;-79
2021/07/14 09:28:33;;;;;;;13.75;9.85;;;21.10;87.00;;;;;;4977444;28;20042;-78
2021/07/14 09:31:07;;;;;;;15.63;11.70;;;21.10;87.00;;;;;;4987352;28;20114;-76
2021/07/14 09:33:40;;;;;;;17.20;11.68;;;21.20;87.00;;;;;;4998821;28;20189;-80
2021/07/14 09:36:07;;;;;;;17.40;9.77;;;21.10;87.00;;;;;;4969590;28;20109;-81
2021/07/14 09:38:36;;;;;;;15.52;11.32;;;21.10;87.20;;;;;;4956178;28;20273;-78
2021/07/14 09:41:05;;;;;;;19.50;11.88;;;21.10;87.20;;;;;;5004875;28;20433;-82
2021/07/14 09:43:38;;;;;;;16.70;10.38;;;21.10;87.10;;;;;;4987800;28;20089;-81
2021/07/14 09:46:07;;;;;;;17.15;12.00;;;21.10;87.10;;;;;;4966741;28;20043;-78
2021/07/14 09:48:40;;;;;;;17.10;11.45;;;21.10;87.20;;;;;;5002637;28;20050;-77
2021/07/14 09:51:12;;;;;;;;;;;21.10;87.20;;;;;;4968436;28;20035;-76
2021/07/14 09:53:42;;;;;;;15.25;10.55;;;21.10;87.20;;;;;;4972210;28;19964;-77
2021/07/14 09:56:27;;;;;;;12.60;8.95;;;21.10;87.40;;;;;;4984457;28;20055;-78
2021/07/14 09:59:09;;;;;;;20.90;14.32;;;21.10;87.20;;;;;;4970512;28;20050;-77
2021/07/14 10:01:49;;;;;;;19.15;13.32;;;21.10;87.10;;;;;;4980066;28;20043;-76
2021/07/14 10:04:36;;;;;;;17.17;10.95;;;21.10;87.40;;;;;;4966680;28;20049;-77
2021/07/14 10:07:07;;;;;;;13.43;9.18;;;21.10;87.40;;;;;;4983447;28;20483;-77
2021/07/14 10:09:35;;;;;;;17.67;11.93;;;21.20;87.40;;;;;;4972113;28;20042;-77
2021/07/14 10:12:39;;;;;;;16.88;11.02;;;21.30;87.20;;;;;;4983392;28;20074;-77
2021/07/14 10:15:15;;;;;;;17.02;11.68;;;21.30;87.00;;;;;;5002975;28;20086;-76
2021/07/14 10:17:46;;;;;;;21.38;13.00;;;21.40;86.90;;;;;;4985438;28;20137;-77
2021/07/14 10:20:29;;;;;;;16.27;11.25;;;21.40;86.90;;;;;;4986070;28;20361;-77
2021/07/14 10:23:00;;;;;;;18.38;12.43;;;21.50;86.80;;;;;;4985967;28;20039;-78
2021/07/14 10:25:27;;;;;;;23.02;13.38;;;21.50;86.70;;;;;;4972549;28;20035;-78
2021/07/14 10:27:57;;;;;;;21.48;13.52;;;21.50;86.50;;;;;;4950834;28;20050;-77
2021/07/14 10:30:25;;;;;;;17.90;11.60;;;21.50;86.60;;;;;;4971380;28;20072;-77
2021/07/14 10:32:53;;;;;;;20.85;15.05;;;21.50;86.60;;;;;;4970768;28;20114;-77
2021/07/14 10:35:23;;;;;;;20.63;14.40;;;21.40;86.60;;;;;;4974179;28;20483;-79
2021/07/14 10:38:23;;;;;;;21.05;13.85;;;21.30;86.60;;;;;;4971372;28;20501;-77
2021/07/14 10:40:51;;;;;;;19.65;13.45;;;21.30;86.80;;;;;;4972492;28;20398;-77
2021/07/14 10:43:21;;;;;;;18.25;11.65;;;21.20;87.00;;;;;;4975881;28;20039;-78
2021/07/14 10:45:50;;;;;;;18.83;12.57;;;21.20;87.10;;;;;;4975499;28;20051;-77
2021/07/14 10:48:19;;;;;;;18.35;12.57;;;21.20;87.20;;;;;;4980017;28;20045;-78
2021/07/14 10:50:54;;;;;;;20.13;12.55;;;21.10;87.30;;;;;;4985346;28;20051;-78
2021/07/14 10:53:25;;;;;;;19.67;12.88;;;21.10;87.50;;;;;;5005861;28;20415;-77
2021/07/14 10:55:54;;;;;;;15.63;11.18;;;21.00;87.70;;;;;;4974985;28;20074;-77
2021/07/14 10:58:23;;;;;;;20.75;12.13;;;21.00;87.80;;;;;;4974819;28;20043;-76
2021/07/14 11:00:51;;;;;;;18.58;12.27;;;21.00;87.80;;;;;;4975056;28;20093;-76
2021/07/14 11:03:37;;;;;;;18.70;12.98;;;21.00;87.90;;;;;;5006167;28;20043;-75
2021/07/14 11:06:06;;;;;;;17.10;11.75;;;21.10;88.00;;;;;;4987644;28;20045;-76
2021/07/14 11:08:39;;;;;;;15.68;11.35;;;21.10;87.90;;;;;;4988453;28;20049;-76
2021/07/14 11:11:12;;;;;;;15.65;10.27;;;21.30;87.50;;;;;;5004272;28;20090;-76
2021/07/14 11:13:41;;;;;;;16.52;9.95;;;21.30;87.40;;;;;;4974936;28;20123;-76
2021/07/14 11:16:30;;;;;;;18.83;10.57;;;21.30;87.40;;;;;;4973880;28;20046;-76
2021/07/14 11:19:10;;;;;;;16.30;10.45;;;21.30;87.30;;;;;;4971595;28;20384;-76
2021/07/14 11:22:00;;;;;;;15.70;10.15;;;21.30;87.30;;;;;;4971294;28;20415;-75
2021/07/14 11:24:46;;;;;;;16.98;11.70;;;21.20;87.50;;;;;;4971111;28;20114;-76
2021/07/14 11:27:22;;;;;;;14.88;10.25;;;21.20;87.70;;;;;;4969167;28;20090;-76
2021/07/14 11:29:51;;;;;;;21.17;12.05;;;21.10;87.90;;;;;;4972158;28;20047;-76
2021/07/14 11:32:35;;;;;;;16.77;9.85;;;21.10;88.60;;;;;;4989291;28;20050;-76
2021/07/14 11:35:11;;;;;;;20.63;11.85;;;21.00;88.00;;;;;;4950404;28;20065;-77
2021/07/14 11:37:41;;;;;;;17.15;11.15;;;21.00;88.10;;;;;;4974544;28;20047;-76
2021/07/14 11:40:20;;;;;;;20.05;12.32;;;21.00;88.30;;;;;;4973132;28;20027;-78
2021/07/14 11:42:54;;;;;;;16.40;11.65;;;20.90;88.40;;;;;;4968186;28;20039;-81
2021/07/14 11:45:33;;;;;;;17.33;10.43;;;20.80;88.50;;;;;;4990058;28;20039;-80
2021/07/14 11:48:05;;;;;;;19.98;12.15;;;20.90;88.50;;;;;;4982349;28;20146;-78
2021/07/14 11:50:44;;;;;;;18.40;10.30;;;20.90;88.60;;;;;;4968319;28;20042;-77
2021/07/14 11:53:39;;;;;;;20.35;12.35;;;20.90;88.50;;;;;;4972181;28;20058;-79
2021/07/14 11:56:15;;;;;;;21.38;12.27;;;20.90;88.40;;;;;;4984070;28;20050;-78
2021/07/14 11:58:45;;;;;;;15.13;9.88;;;20.90;88.40;;;;;;4968258;28;20043;-78
2021/07/14 12:01:17;;;;;;;18.45;10.50;;;20.90;88.40;;;;;;4975345;28;20067;-78
2021/07/14 12:06:38;;;;;;;16.52;11.05;;;21.00;88.20;;;;;;4974101;28;20039;-78
2021/07/14 12:09:15;;;;;;;18.65;11.73;;;20.90;88.20;;;;;;5005749;28;20085;-79
2021/07/14 12:11:52;;;;;;;18.60;10.20;;;21.00;88.20;;;;;;4975069;28;20043;-78
2021/07/14 12:14:24;;;;;;;19.98;12.15;;;21.00;88.10;;;;;;4974032;28;20038;-80
2021/07/14 12:17:07;;;;;;;20.15;11.45;;;21.00;88.00;;;;;;4980931;28;20129;-79
2021/07/14 12:19:41;;;;;;;19.00;11.77;;;21.10;87.90;;;;;;5003479;28;20422;-78
2021/07/14 12:22:17;;;;;;;16.52;11.85;;;21.10;87.70;;;;;;4971922;28;20387;-79
2021/07/14 12:24:53;;;;;;;20.63;12.18;;;21.10;87.70;;;;;;4988819;28;20109;-79
2021/07/14 12:27:27;;;;;;;16.15;12.15;;;21.10;87.70;;;;;;4977731;28;20051;-79
2021/07/14 12:30:02;;;;;;;19.98;12.55;;;21.20;87.70;;;;;;4972926;28;20045;-80
2021/07/14 12:32:38;;;;;;;14.52;10.00;;;21.20;87.50;;;;;;4975066;28;20034;-81
2021/07/14 12:35:26;;;;;;;22.08;12.73;;;21.30;87.40;;;;;;4996577;28;20058;-79
2021/07/14 12:37:59;;;;;;;18.35;11.55;;;21.30;87.20;;;;;;4962257;28;20038;-81
2021/07/14 12:40:33;;;;;;;14.43;9.13;;;21.30;87.20;;;;;;4974344;28;20043;-77
2021/07/14 12:43:08;;;;;;;17.13;10.73;;;21.40;87.10;;;;;;4988133;28;20043;-79
2021/07/14 12:45:38;;;;;;;13.88;9.77;;;21.50;87.00;;;;;;4978297;28;20054;-79
2021/07/14 12:48:17;;;;;;;15.25;9.52;;;21.60;86.90;;;;;;5004919;28;20051;-78
2021/07/14 12:50:46;;;;;;;16.63;9.07;;;21.70;86.60;;;;;;4969865;28;20042;-78
2021/07/14 12:53:15;;;;;;;16.60;9.20;;;21.90;86.30;;;;;;4966545;28;20050;-77
2021/07/14 12:55:43;;;;;;;13.68;10.25;;;22.00;85.90;;;;;;4973424;28;20039;-77
2021/07/14 12:58:13;;;;;;;13.85;10.40;;;22.00;86.20;;;;;;4970883;28;20073;-78
2021/07/14 13:00:45;;;;;;;13.98;8.93;;;22.10;85.50;;;;;;4973620;28;20050;-76